Time;durP1;ratioP1;P1;durP2;ratioP2;P2;SDS_P1;SDS_P2;PMS_P1;PMS_P2;Temp;Humidity;BMP_temperature;BMP_pressure;BME280_temperature;BME280_humidity;BME280_pressure;Samples;Min_cycle;Max_cycle;Signal;HPM_P1;HPM_P2
2023/03/08 00:02:13;;;;;;;9.80;4.72;;;;;;;-1.01;100.00;99702.78;10226862;28;20046;-74
2023/03/08 00:07:10;;;;;;;9.45;5.00;;;;;;;-1.03;100.00;99696.88;10229818;28;20514;-75
2023/03/08 00:12:07;;;;;;;9.63;5.05;;;;;;;-1.10;100.00;99700.59;10226222;28;20133;-75
2023/03/08 00:17:04;;;;;;;9.15;4.88;;;;;;;-1.16;100.00;99701.69;10220581;28;20140;-74
2023/03/08 00:22:00;;;;;;;6.93;4.80;;;;;;;-1.19;100.00;99699.50;10220622;28;20045;-75
2023/03/08 00:26:56;;;;;;;7.93;5.30;;;;;;;-1.24;100.00;99704.06;10224974;28;20092;-75
2023/03/08 00:31:53;;;;;;;6.13;4.90;;;;;;;-1.27;100.00;99708.09;10220781;28;20141;-75
2023/03/08 00:36:49;;;;;;;5.40;4.78;;;;;;;-1.30;100.00;99709.44;10228971;28;20053;-75
2023/03/08 00:41:46;;;;;;;5.50;4.40;;;;;;;-1.28;100.00;99719.88;10228491;28;20050;-75
2023/03/08 00:46:42;;;;;;;6.97;4.47;;;;;;;-1.36;100.00;99718.50;10227443;28;20529;-75
2023/03/08 00:51:39;;;;;;;4.80;4.40;;;;;;;-1.34;100.00;99715.59;10229309;28;20084;-75
2023/03/08 00:56:35;;;;;;;9.40;5.20;;;;;;;-1.37;100.00;99726.81;10232859;28;20499;-75
2023/03/08 01:01:32;;;;;;;7.47;4.80;;;;;;;-1.38;100.00;99735.94;10235722;28;20096;-75
2023/03/08 01:06:28;;;;;;;7.53;4.55;;;;;;;-1.42;100.00;99740.22;10230137;28;20076;-75
2023/03/08 01:11:26;;;;;;;9.50;4.90;;;;;;;-1.46;100.00;99747.97;10232968;28;20495;-74
2023/03/08 01:16:26;;;;;;;6.53;4.78;;;;;;;-1.54;100.00;99743.91;10231420;28;20577;-75
2023/03/08 01:21:24;;;;;;;5.65;4.80;;;;;;;-1.55;100.00;99736.94;10227796;28;20072;-75
2023/03/08 01:26:23;;;;;;;7.55;5.20;;;;;;;-1.57;100.00;99732.91;10228785;28;20487;-75
2023/03/08 01:31:22;;;;;;;5.57;5.07;;;;;;;-1.57;100.00;99723.00;10230934;28;20065;-75
2023/03/08 01:36:21;;;;;;;8.73;5.25;;;;;;;-1.64;100.00;99721.63;10222341;28;20068;-74
2023/03/08 01:41:24;;;;;;;5.90;5.20;;;;;;;-1.66;100.00;99729.91;10233223;28;20045;-74
2023/03/08 01:46:33;;;;;;;7.65;4.97;;;;;;;-1.70;100.00;99734.19;10230866;28;20051;-75
2023/03/08 01:51:45;;;;;;;5.97;5.00;;;;;;;-1.68;100.00;99721.34;10232198;28;20437;-74
2023/03/08 01:56:43;;;;;;;6.18;5.10;;;;;;;-1.69;100.00;99719.72;10222800;28;20065;-74
2023/03/08 02:01:40;;;;;;;6.38;5.78;;;;;;;-1.72;100.00;99710.34;10234780;28;20273;-75
2023/03/08 02:06:36;;;;;;;7.20;5.22;;;;;;;-1.73;100.00;99707.91;10226702;28;20049;-74
2023/03/08 02:11:35;;;;;;;5.80;5.18;;;;;;;-1.75;100.00;99705.47;10223608;28;20072;-74
2023/03/08 02:16:32;;;;;;;8.23;5.70;;;;;;;-1.75;100.00;99693.97;10228448;28;20049;-74
2023/03/08 02:21:30;;;;;;;6.80;6.00;;;;;;;-1.77;100.00;99707.63;10230873;28;20049;-74
2023/03/08 02:26:26;;;;;;;10.85;6.47;;;;;;;-1.78;100.00;99705.22;10224855;28;20498;-74
2023/03/08 02:31:23;;;;;;;6.10;5.40;;;;;;;-1.78;100.00;99716.72;10232670;28;20046;-74
2023/03/08 02:36:19;;;;;;;8.32;5.82;;;;;;;-1.68;100.00;99710.59;10230547;28;20046;-75
2023/03/08 02:41:16;;;;;;;7.68;5.85;;;;;;;-1.38;100.00;99714.47;10232327;28;20061;-75
2023/03/08 02:46:13;;;;;;;7.90;6.00;;;;;;;-1.18;100.00;99714.56;10226713;28;20099;-74
2023/03/08 02:51:09;;;;;;;7.75;5.60;;;;;;;-1.06;100.00;99717.78;10233097;28;20060;-75
2023/03/08 02:56:06;;;;;;;10.07;5.88;;;;;;;-1.12;100.00;99713.47;10225211;28;20076;-74
2023/03/08 03:01:03;;;;;;;9.57;6.35;;;;;;;-1.12;100.00;99705.44;10234741;28;20133;-75
2023/03/08 03:05:59;;;;;;;12.07;6.47;;;;;;;-1.12;100.00;99718.84;10228575;28;20049;-74
2023/03/08 03:10:56;;;;;;;10.02;5.90;;;;;;;-1.18;100.00;99703.81;10230778;28;20535;-74
2023/03/08 03:15:52;;;;;;;6.85;6.00;;;;;;;-1.19;100.00;99704.88;10229425;28;20499;-74
2023/03/08 03:20:49;;;;;;;6.20;5.60;;;;;;;-1.15;100.00;99708.66;10229052;28;20060;-75
2023/03/08 03:25:45;;;;;;;8.60;7.25;;;;;;;-1.14;100.00;99704.91;10222755;28;20088;-75
2023/03/08 03:30:41;;;;;;;9.35;6.50;;;;;;;-1.06;100.00;99701.69;10227931;28;20045;-75
2023/03/08 03:35:38;;;;;;;10.85;6.75;;;;;;;-1.03;100.00;99715.66;10227279;28;20526;-75
2023/03/08 03:40:35;;;;;;;14.15;7.35;;;;;;;-0.98;100.00;99703.03;10222896;28;20718;-75
2023/03/08 03:45:31;;;;;;;7.60;6.85;;;;;;;-0.96;100.00;99700.09;10225892;28;20060;-75
2023/03/08 03:50:28;;;;;;;10.35;6.90;;;;;;;-0.85;100.00;99715.16;10223118;28;20045;-76
2023/03/08 03:55:24;;;;;;;8.07;7.00;;;;;;;-0.77;100.00;99724.53;10220350;28;20041;-75
2023/03/08 04:00:21;;;;;;;7.40;6.50;;;;;;;-0.75;100.00;99717.84;10226417;28;20050;-75
2023/03/08 04:05:17;;;;;;;7.60;6.85;;;;;;;-0.71;100.00;99724.28;10225371;28;20049;-74
2023/03/08 04:10:13;;;;;;;9.73;6.50;;;;;;;-0.78;100.00;99718.38;10227031;28;20053;-75
2023/03/08 04:15:10;;;;;;;7.65;6.85;;;;;;;-0.74;100.00;99730.19;10227047;28;20052;-74
2023/03/08 04:20:07;;;;;;;8.30;7.15;;;;;;;-0.72;100.00;99725.38;10226607;28;20128;-73
2023/03/08 04:25:04;;;;;;;7.47;6.28;;;;;;;-0.71;100.00;99724.28;10228401;28;20843;-75
2023/03/08 04:30:01;;;;;;;9.73;6.85;;;;;;;-0.77;100.00;99730.72;10226647;28;20060;-76
2023/03/08 04:34:58;;;;;;;9.85;7.20;;;;;;;-0.79;100.00;99727.50;10210291;28;20094;-75
2023/03/08 04:39:54;;;;;;;10.95;6.88;;;;;;;-0.75;100.00;99723.19;10215757;28;20099;-75
2023/03/08 04:44:51;;;;;;;8.10;6.70;;;;;;;-0.68;100.00;99723.75;10206343;28;20045;-75
2023/03/08 04:49:47;;;;;;;8.82;7.70;;;;;;;-0.69;100.00;99726.72;10220535;28;20539;-75
2023/03/08 04:54:43;;;;;;;8.75;6.57;;;;;;;-0.71;100.00;99735.03;10223381;28;20064;-75
2023/03/08 04:59:42;;;;;;;6.97;6.38;;;;;;;-0.68;100.00;99726.41;10218957;28;20076;-75
2023/03/08 05:04:39;;;;;;;8.80;7.03;;;;;;;-0.65;100.00;99720.53;10231247;28;20506;-74
2023/03/08 05:09:35;;;;;;;7.75;6.95;;;;;;;-0.70;100.00;99731.25;10220120;28;20590;-75
2023/03/08 05:14:32;;;;;;;9.40;7.65;;;;;;;-0.74;100.00;99719.47;10218967;28;20486;-75
2023/03/08 05:19:28;;;;;;;13.00;7.65;;;;;;;-0.74;100.00;99716.78;10223245;28;20063;-75
2023/03/08 05:24:26;;;;;;;8.65;7.28;;;;;;;-0.71;100.00;99713.53;10219256;28;20046;-75
2023/03/08 05:29:22;;;;;;;8.48;7.30;;;;;;;-0.65;100.00;99709.81;10221108;28;20508;-75
2023/03/08 05:34:18;;;;;;;8.00;7.30;;;;;;;-0.68;100.00;99710.31;10227969;28;20041;-75
2023/03/08 05:39:15;;;;;;;9.55;7.55;;;;;;;-0.64;100.00;99708.72;10230465;28;20148;-74
2023/03/08 05:44:11;;;;;;;9.57;7.78;;;;;;;-0.64;100.00;99703.34;10226349;28;20140;-75
2023/03/08 05:49:08;;;;;;;10.93;9.45;;;;;;;-0.65;100.00;99711.66;10221350;28;20076;-75
2023/03/08 05:54:05;;;;;;;14.23;9.25;;;;;;;-0.59;100.00;99720.53;10229087;28;20049;-75
2023/03/08 05:59:01;;;;;;;15.02;10.73;;;;;;;-0.60;100.00;99725.09;10227501;28;20080;-75
2023/03/08 06:03:58;;;;;;;16.25;12.23;;;;;;;-0.58;100.00;99727.50;10229219;28;20522;-75
2023/03/08 06:08:55;;;;;;;13.15;11.02;;;;;;;-0.68;100.00;99734.47;10232203;28;20068;-75
2023/03/08 06:13:51;;;;;;;14.63;11.35;;;;;;;-0.64;100.00;99724.81;10230807;28;20054;-75
2023/03/08 06:18:48;;;;;;;14.90;12.32;;;;;;;-0.69;100.00;99727.50;10231450;28;20053;-74
2023/03/08 06:23:45;;;;;;;14.32;11.40;;;;;;;-0.78;100.00;99722.94;10223454;28;20065;-75
2023/03/08 06:28:41;;;;;;;16.60;12.50;;;;;;;-0.61;100.00;99722.69;10233195;28;20037;-74
2023/03/08 06:33:38;;;;;;;19.50;13.82;;;;;;;-0.59;100.00;99715.16;10228402;28;20168;-74
2023/03/08 06:38:37;;;;;;;17.73;13.25;;;;;;;-0.55;100.00;99710.88;10228869;28;20049;-74
2023/03/08 06:43:34;;;;;;;17.63;11.77;;;;;;;-0.65;100.00;99712.47;10234291;28;20045;-74
2023/03/08 06:48:31;;;;;;;19.80;12.45;;;;;;;-0.64;100.00;99719.44;10233211;28;20529;-74
2023/03/08 06:53:28;;;;;;;17.20;12.75;;;;;;;-0.50;100.00;99713.56;10231188;28;20045;-74
2023/03/08 06:58:24;;;;;;;15.35;11.65;;;;;;;-0.54;100.00;99717.84;10232856;28;20069;-75
2023/03/08 07:03:21;;;;;;;16.83;12.15;;;;;;;-0.50;100.00;99718.94;10229913;28;20051;-74
2023/03/08 07:08:18;;;;;;;27.75;13.90;;;;;;;-0.54;100.00;99723.22;10226952;28;20096;-74
2023/03/08 07:13:14;;;;;;;19.27;12.73;;;;;;;-0.44;100.00;99734.78;10226677;28;20084;-74
2023/03/08 07:18:11;;;;;;;18.00;11.73;;;;;;;-0.50;100.00;99727.78;10230317;28;20136;-74
2023/03/08 07:23:09;;;;;;;21.27;13.43;;;;;;;-0.31;100.00;99728.03;10224787;28;20080;-74
2023/03/08 07:28:06;;;;;;;20.48;13.85;;;;;;;-0.17;100.00;99724.81;10227856;28;20073;-74
2023/03/08 07:33:02;;;;;;;18.92;13.93;;;;;;;-0.15;100.00;99719.97;10231227;28;20073;-74
2023/03/08 07:37:59;;;;;;;21.52;13.50;;;;;;;-0.09;100.00;99719.69;10226358;28;20125;-74
2023/03/08 07:42:56;;;;;;;24.40;14.07;;;;;;;-0.02;100.00;99719.41;10228909;28;20045;-74
2023/03/08 07:47:53;;;;;;;21.90;13.75;;;;;;;-0.19;100.00;99713.53;10227435;28;20060;-74
2023/03/08 07:52:49;;;;;;;20.35;13.88;;;;;;;0.13;100.00;99714.00;10228190;28;20132;-75
2023/03/08 07:57:45;;;;;;;24.40;13.73;;;;;;;0.12;100.00;99719.66;10208036;28;20656;-74
2023/03/08 08:02:42;;;;;;;23.48;13.25;;;;;;;0.03;100.00;99716.72;10227708;28;20557;-74
2023/03/08 08:07:38;;;;;;;21.92;14.40;;;;;;;0.11;100.00;99724.22;10223886;28;20562;-74
2023/03/08 08:12:35;;;;;;;20.23;14.23;;;;;;;0.17;100.00;99717.75;10225807;28;20426;-74
2023/03/08 08:17:31;;;;;;;23.60;14.02;;;;;;;0.13;100.00;99700.56;10227216;28;20042;-74
2023/03/08 08:22:27;;;;;;;26.52;16.10;;;;;;;0.32;100.00;99708.03;10229351;28;20054;-74
2023/03/08 08:27:24;;;;;;;23.02;14.48;;;;;;;0.49;100.00;99705.81;10217328;28;20388;-74
2023/03/08 08:32:20;;;;;;;22.27;15.45;;;;;;;0.59;100.00;99692.31;10224458;28;20474;-74
2023/03/08 08:37:17;;;;;;;25.45;15.55;;;;;;;0.59;100.00;99689.63;10222161;28;20111;-74
2023/03/08 08:42:13;;;;;;;19.02;13.80;;;;;;;0.69;100.00;99690.66;10227960;28;20419;-74
2023/03/08 08:47:10;;;;;;;19.83;13.55;;;;;;;0.73;100.00;99689.03;10229269;28;20041;-74
2023/03/08 08:52:06;;;;;;;19.95;12.95;;;;;;;0.77;100.00;99698.16;10228065;28;20136;-74
2023/03/08 08:57:03;;;;;;;19.90;11.93;;;;;;;0.81;100.00;99705.41;10218361;28;20053;-74
2023/03/08 09:01:59;;;;;;;20.27;12.63;;;;;;;0.79;100.00;99712.13;10220247;28;20133;-74
2023/03/08 09:06:56;;;;;;;19.23;13.35;;;;;;;0.79;100.00;99706.72;10217428;28;20100;-74
2023/03/08 09:11:52;;;;;;;24.85;16.15;;;;;;;0.77;100.00;99714.31;10220959;28;20498;-74
2023/03/08 09:16:51;;;;;;;26.75;16.10;;;;;;;0.86;100.00;99711.81;10223769;28;20045;-74
2023/03/08 09:21:48;;;;;;;25.52;16.25;;;;;;;0.70;100.00;99705.72;10233677;28;20352;-74
2023/03/08 09:26:46;;;;;;;21.67;15.52;;;;;;;0.69;100.00;99712.19;10231316;28;20045;-74
2023/03/08 09:31:44;;;;;;;24.67;16.20;;;;;;;0.75;100.00;99703.00;10229799;28;20048;-74
2023/03/08 09:36:41;;;;;;;25.92;17.70;;;;;;;0.67;100.00;99698.19;10230979;28;20045;-74
2023/03/08 09:41:40;;;;;;;28.80;18.02;;;;;;;0.71;100.00;99693.88;10221837;28;20649;-74
2023/03/08 09:46:45;;;;;;;22.60;14.60;;;;;;;0.73;100.00;99702.47;10230520;28;20042;-74
2023/03/08 09:51:46;;;;;;;22.55;16.35;;;;;;;0.69;100.00;99690.66;10230088;28;20055;-74
2023/03/08 09:56:48;;;;;;;25.80;16.52;;;;;;;0.67;100.00;99687.44;10233098;28;20047;-74
2023/03/08 10:01:59;;;;;;;;;;;;;;;0.86;100.00;99687.59;10235505;28;20072;-74
2023/03/08 10:07:20;;;;;;;23.15;15.50;;;;;;;1.13;100.00;99674.50;10226061;28;19929;-74
2023/03/08 10:12:30;;;;;;;25.80;16.23;;;;;;;0.94;100.00;99666.28;10225907;28;20535;-74
2023/03/08 10:17:38;;;;;;;23.05;15.38;;;;;;;1.21;100.00;99665.03;10229833;28;20460;-74
2023/03/08 10:22:41;;;;;;;22.52;14.95;;;;;;;1.25;100.00;99661.50;10222052;28;20050;-74
2023/03/08 10:27:37;;;;;;;19.48;13.85;;;;;;;1.39;100.00;99661.66;10229506;28;20065;-74
2023/03/08 10:32:42;;;;;;;21.20;14.48;;;;;;;1.33;100.00;99657.38;10231640;28;20100;-74
2023/03/08 10:37:39;;;;;;;17.05;13.45;;;;;;;1.33;100.00;99652.00;10228434;28;20462;-74
2023/03/08 10:42:36;;;;;;;18.92;13.10;;;;;;;1.38;100.00;99649.25;10228185;28;20080;-74
2023/03/08 10:47:34;;;;;;;22.15;13.70;;;;;;;1.61;100.00;99636.13;10228521;28;20148;-74
2023/03/08 10:52:30;;;;;;;19.65;14.15;;;;;;;1.72;100.00;99632.25;10232266;28;20526;-74
2023/03/08 10:57:28;;;;;;;18.35;13.02;;;;;;;1.66;100.00;99628.00;10231211;28;20046;-74
2023/03/08 11:02:24;;;;;;;20.75;13.15;;;;;;;1.81;100.00;99625.16;10228943;28;20128;-74
2023/03/08 11:07:24;;;;;;;19.35;12.23;;;;;;;1.73;100.00;99617.66;10221956;28;20057;-74
2023/03/08 11:12:25;;;;;;;15.43;11.77;;;;;;;1.97;100.00;99611.47;10220931;28;20051;-75
2023/03/08 11:17:32;;;;;;;19.38;13.10;;;;;;;2.18;100.00;99607.47;10224123;28;20041;-75
2023/03/08 11:22:53;;;;;;;15.95;12.23;;;;;;;2.33;100.00;99592.16;10216329;28;20141;-74
2023/03/08 11:28:21;;;;;;;16.00;10.80;;;;;;;2.33;100.00;99602.97;10222262;28;20037;-74
2023/03/08 11:33:52;;;;;;;15.40;11.98;;;;;;;2.68;100.00;99588.16;10216561;28;20042;-74
2023/03/08 11:39:14;;;;;;;19.10;12.35;;;;;;;2.50;100.00;99592.47;10228664;28;20050;-74
2023/03/08 11:44:16;;;;;;;16.05;11.75;;;;;;;2.47;100.00;99587.66;10226164;28;20064;-74
2023/03/08 11:49:24;;;;;;;17.33;11.07;;;;;;;2.57;100.00;99582.09;10219557;28;20401;-74
2023/03/08 11:54:41;;;;;;;17.27;12.73;;;;;;;2.49;100.00;99580.06;10228744;28;20081;-75
2023/03/08 11:59:55;;;;;;;15.85;11.30;;;;;;;2.51;100.00;99573.28;10233656;28;20073;-74
2023/03/08 12:05:01;;;;;;;16.38;11.32;;;;;;;2.60;100.00;99570.75;10216944;28;20557;-74
2023/03/08 12:10:02;;;;;;;13.55;10.27;;;;;;;2.80;100.00;99574.22;10229796;28;20133;-74
2023/03/08 12:15:06;;;;;;;16.90;11.00;;;;;;;3.11;100.00;99572.63;10222737;28;20487;-74
2023/03/08 12:20:08;;;;;;;14.95;11.10;;;;;;;3.05;100.00;99554.91;10228674;28;20049;-73
2023/03/08 12:25:30;;;;;;;15.50;11.25;;;;;;;3.50;100.00;99555.16;10221534;28;20688;-73
2023/03/08 12:30:40;;;;;;;11.63;10.43;;;;;;;3.62;100.00;99545.78;10222246;28;20128;-74
2023/03/08 12:35:48;;;;;;;15.32;11.48;;;;;;;3.66;100.00;99542.16;10228148;28;20059;-74
2023/03/08 12:40:50;;;;;;;14.45;12.48;;;;;;;3.71;100.00;99542.09;10229710;28;20037;-73
2023/03/08 12:45:55;;;;;;;11.90;10.63;;;;;;;3.73;100.00;99544.47;10227849;28;20045;-74
2023/03/08 12:51:13;;;;;;;14.63;11.88;;;;;;;3.87;100.00;99526.34;10228602;28;20129;-73
2023/03/08 12:56:09;;;;;;;12.93;11.52;;;;;;;3.53;100.00;99535.66;10232845;28;20044;-73
2023/03/08 13:01:29;;;;;;;14.75;11.40;;;;;;;3.85;100.00;99528.53;10235904;28;20317;-74
2023/03/08 13:06:35;;;;;;;15.00;12.52;;;;;;;3.89;100.00;99540.34;10225824;28;20246;-73
2023/03/08 13:11:43;;;;;;;15.55;13.40;;;;;;;3.64;100.00;99538.16;10231059;28;20037;-74
2023/03/08 13:16:39;;;;;;;20.77;13.68;;;;;;;3.66;100.00;99530.56;10221539;28;20095;-73
2023/03/08 13:21:40;;;;;;;19.48;12.45;;;;;;;3.79;100.00;99540.56;10227574;28;20056;-73
2023/03/08 13:27:04;;;;;;;14.95;12.82;;;;;;;3.53;100.00;99537.56;10231250;28;20057;-74
2023/03/08 13:32:10;;;;;;;13.93;12.02;;;;;;;3.47;100.00;99538.75;10236281;28;20049;-74
2023/03/08 13:37:24;;;;;;;13.75;11.18;;;;;;;3.65;100.00;99545.19;10236143;28;20091;-73
2023/03/08 13:42:25;;;;;;;14.57;11.98;;;;;;;3.48;100.00;99541.19;10233281;28;20052;-73
2023/03/08 13:47:32;;;;;;;15.35;10.38;;;;;;;3.97;100.00;99542.38;10225322;28;20056;-73
2023/03/08 13:52:35;;;;;;;13.77;10.02;;;;;;;3.85;100.00;99544.75;10231993;28;20517;-74
2023/03/08 13:57:34;;;;;;;;;;;;;;;4.16;100.00;99539.53;10233076;28;20261;-74
2023/03/08 14:02:31;;;;;;;11.30;10.20;;;;;;;4.21;100.00;99541.31;10231614;28;19921;-74
2023/03/08 14:07:30;;;;;;;11.25;9.70;;;;;;;4.18;100.00;99539.25;10229920;28;20045;-74
2023/03/08 14:12:30;;;;;;;12.25;9.57;;;;;;;4.21;100.00;99535.91;10223681;28;20530;-73
2023/03/08 14:17:30;;;;;;;11.43;10.32;;;;;;;4.18;100.00;99541.94;10232124;28;20076;-74
2023/03/08 14:22:29;;;;;;;13.10;10.13;;;;;;;4.07;100.00;99532.44;10227053;28;20163;-74
2023/03/08 14:27:40;;;;;;;10.43;8.77;;;;;;;4.05;100.00;99521.13;10220912;28;20415;-74
2023/03/08 14:32:37;;;;;;;11.18;10.05;;;;;;;4.02;100.00;99513.63;10234478;28;20045;-74
2023/03/08 14:37:34;;;;;;;12.80;10.15;;;;;;;4.13;100.00;99523.91;10231964;28;20053;-74
2023/03/08 14:42:45;;;;;;;10.75;9.65;;;;;;;3.96;100.00;99513.69;10231379;28;20430;-74
2023/03/08 14:47:57;;;;;;;10.82;8.93;;;;;;;4.03;100.00;99509.78;10224526;28;20049;-74
2023/03/08 14:52:55;;;;;;;9.40;8.32;;;;;;;4.29;100.00;99500.00;10226020;28;20415;-73
2023/03/08 14:57:58;;;;;;;11.05;8.07;;;;;;;4.75;100.00;99496.22;10230315;28;20088;-74
2023/03/08 15:02:56;;;;;;;10.90;8.55;;;;;;;4.48;100.00;99496.31;10229168;28;20124;-74
2023/03/08 15:07:53;;;;;;;8.38;7.53;;;;;;;4.41;100.00;99486.75;10232060;28;20037;-73
2023/03/08 15:12:50;;;;;;;8.43;7.53;;;;;;;4.16;100.00;99495.44;10228521;28;20045;-74
2023/03/08 15:17:47;;;;;;;9.85;8.45;;;;;;;3.94;100.00;99488.88;10228515;28;20419;-74
2023/03/08 15:22:51;;;;;;;7.47;6.38;;;;;;;3.91;100.00;99497.59;10229291;28;20120;-73
2023/03/08 15:27:48;;;;;;;7.07;6.38;;;;;;;3.76;100.00;99484.38;10223559;28;20655;-74
2023/03/08 15:32:45;;;;;;;9.10;7.30;;;;;;;3.77;100.00;99488.69;10225974;28;20245;-74
2023/03/08 15:37:42;;;;;;;8.68;7.78;;;;;;;3.74;100.00;99489.31;10227621;28;20069;-74
2023/03/08 15:42:39;;;;;;;7.97;6.78;;;;;;;3.58;100.00;99486.13;10228728;28;20103;-74
2023/03/08 15:47:36;;;;;;;7.20;6.60;;;;;;;3.49;100.00;99486.00;10227899;28;20099;-74
2023/03/08 15:52:32;;;;;;;8.07;6.95;;;;;;;3.43;100.00;99473.69;10228827;28;20144;-74
2023/03/08 15:57:29;;;;;;;8.15;7.45;;;;;;;3.33;100.00;99490.91;10229937;28;20285;-74
2023/03/08 16:02:25;;;;;;;8.77;7.15;;;;;;;3.29;100.00;99483.72;10229798;28;20049;-73
2023/03/08 16:07:22;;;;;;;9.65;7.00;;;;;;;3.07;100.00;99487.09;10219707;28;20076;-72
2023/03/08 16:12:18;;;;;;;7.40;6.70;;;;;;;3.04;100.00;99475.00;10231100;28;20095;-74
2023/03/08 16:17:16;;;;;;;7.43;6.78;;;;;;;2.96;100.00;99481.06;10218895;28;20072;-74
2023/03/08 16:22:13;;;;;;;10.20;6.55;;;;;;;2.91;100.00;99473.06;10232218;28;20050;-73
2023/03/08 16:27:09;;;;;;;7.78;7.07;;;;;;;3.01;100.00;99472.88;10216264;28;20067;-73
2023/03/08 16:32:06;;;;;;;7.60;6.90;;;;;;;2.90;100.00;99472.28;10230647;28;20419;-73
2023/03/08 16:37:04;;;;;;;10.02;6.95;;;;;;;2.71;100.00;99469.59;10222146;28;20046;-73
2023/03/08 16:42:00;;;;;;;8.27;7.43;;;;;;;2.51;100.00;99475.34;10222321;28;20725;-73
2023/03/08 16:46:57;;;;;;;7.78;7.05;;;;;;;2.42;100.00;99482.50;10222323;28;20053;-73
2023/03/08 16:51:54;;;;;;;7.35;6.60;;;;;;;2.41;100.00;99478.19;10223108;28;20053;-73
2023/03/08 16:56:50;;;;;;;7.10;6.50;;;;;;;2.27;100.00;99481.63;10219462;28;20499;-74
2023/03/08 17:01:48;;;;;;;7.78;7.07;;;;;;;2.10;100.00;99486.75;10226710;28;20133;-73
2023/03/08 17:06:45;;;;;;;6.72;6.13;;;;;;;1.99;100.00;99488.78;10222949;28;20038;-73
2023/03/08 17:11:42;;;;;;;7.75;7.05;;;;;;;1.83;100.00;99493.59;10224501;28;20474;-73
2023/03/08 17:16:38;;;;;;;8.90;8.05;;;;;;;1.87;100.00;99489.19;10221223;28;20470;-74
2023/03/08 17:21:37;;;;;;;7.95;7.18;;;;;;;1.68;100.00;99502.66;10219816;28;20073;-73
2023/03/08 17:26:39;;;;;;;9.35;7.38;;;;;;;1.72;100.00;99508.28;10212361;28;20472;-74
2023/03/08 17:31:35;;;;;;;8.07;7.37;;;;;;;1.66;100.00;99504.84;10239575;28;20089;-71
2023/03/08 17:36:32;;;;;;;8.40;7.60;;;;;;;1.51;100.00;99501.50;10225279;28;20571;-76
2023/03/08 17:41:28;;;;;;;9.20;7.82;;;;;;;1.53;100.00;99510.13;10227320;28;20072;-76
2023/03/08 17:46:26;;;;;;;10.95;7.60;;;;;;;1.44;100.00;99502.69;10220453;28;20075;-75
2023/03/08 17:51:25;;;;;;;8.65;7.85;;;;;;;1.33;100.00;99528.13;10221582;28;20041;-76
2023/03/08 17:56:28;;;;;;;9.20;8.30;;;;;;;1.33;100.00;99528.13;10227423;28;20046;-76
2023/03/08 18:01:27;;;;;;;10.07;8.65;;;;;;;1.32;100.00;99531.88;10233433;28;20049;-76
2023/03/08 18:06:29;;;;;;;8.82;7.97;;;;;;;1.26;100.00;99522.25;10231751;28;20046;-76
2023/03/08 18:11:26;;;;;;;;;;;;;;;1.19;100.00;99521.81;10225428;28;20042;-76
2023/03/08 18:16:22;;;;;;;11.23;9.25;;;;;;;1.18;100.00;99514.78;10222715;28;19928;-76
2023/03/08 18:21:20;;;;;;;15.32;8.73;;;;;;;1.11;100.00;99522.41;10232968;28;20396;-77
2023/03/08 18:26:17;;;;;;;10.85;8.68;;;;;;;1.20;100.00;99518.00;10232880;28;20084;-77
2023/03/08 18:31:16;;;;;;;10.00;9.00;;;;;;;1.12;100.00;99521.34;10229737;28;20436;-76
2023/03/08 18:36:13;;;;;;;13.15;8.88;;;;;;;1.12;100.00;99505.19;10222515;28;20071;-76
2023/03/08 18:41:24;;;;;;;9.10;8.18;;;;;;;1.11;100.00;99503.56;10225387;28;20045;-76
2023/03/08 18:46:27;;;;;;;10.13;9.15;;;;;;;0.91;100.00;99505.38;10225132;28;20037;-76
2023/03/08 18:51:23;;;;;;;9.75;8.82;;;;;;;0.84;100.00;99510.28;10220989;28;20041;-75
2023/03/08 18:56:21;;;;;;;9.32;8.48;;;;;;;0.77;100.00;99504.44;10231264;28;20052;-76
2023/03/08 19:01:17;;;;;;;10.50;8.60;;;;;;;0.62;100.00;99514.19;10231153;28;20132;-76
2023/03/08 19:06:14;;;;;;;11.95;9.50;;;;;;;0.58;100.00;99499.72;10229669;28;20125;-76
2023/03/08 19:11:12;;;;;;;10.00;9.00;;;;;;;0.60;100.00;99492.19;10235270;28;20081;-76
2023/03/08 19:16:20;;;;;;;10.30;9.30;;;;;;;0.63;100.00;99497.00;10226801;28;20055;-76
2023/03/08 19:21:19;;;;;;;11.88;9.68;;;;;;;0.53;100.00;99499.75;10223804;28;20150;-76
2023/03/08 19:26:37;;;;;;;11.93;8.95;;;;;;;0.53;100.00;99499.75;10228943;28;20049;-76
2023/03/08 19:31:39;;;;;;;11.43;9.45;;;;;;;0.45;100.00;99503.06;10229399;28;20041;-76
2023/03/08 19:36:36;;;;;;;12.23;9.48;;;;;;;0.47;100.00;99495.50;10230105;28;20050;-76
2023/03/08 19:41:33;;;;;;;10.52;9.38;;;;;;;0.40;100.00;99489.66;10228710;28;20048;-76
2023/03/08 19:46:29;;;;;;;10.88;9.45;;;;;;;0.36;100.00;99496.66;10229552;28;20042;-76
2023/03/08 19:51:26;;;;;;;10.20;9.00;;;;;;;0.48;100.00;99494.41;10226518;28;20128;-76
2023/03/08 19:56:23;;;;;;;12.50;9.68;;;;;;;0.38;100.00;99481.84;10230023;28;20045;-76
2023/03/08 20:01:20;;;;;;;11.73;9.07;;;;;;;0.43;100.00;99486.38;10227629;28;20045;-76
2023/03/08 20:06:35;;;;;;;13.07;9.25;;;;;;;0.43;100.00;99489.09;10224246;28;20072;-76
2023/03/08 20:11:32;;;;;;;11.40;9.93;;;;;;;0.45;100.00;99486.13;10229310;28;20046;-76
2023/03/08 20:16:29;;;;;;;14.63;9.13;;;;;;;0.45;100.00;99494.97;10226005;28;20573;-76
2023/03/08 20:21:28;;;;;;;13.73;10.55;;;;;;;0.42;100.00;99503.63;10224419;28;20049;-75
2023/03/08 20:26:27;;;;;;;11.43;9.20;;;;;;;0.41;100.00;99507.38;10220185;28;20076;-76
2023/03/08 20:31:26;;;;;;;12.00;9.35;;;;;;;0.51;100.00;99523.47;10229125;28;20124;-75
2023/03/08 20:36:23;;;;;;;13.98;9.52;;;;;;;0.46;100.00;99515.41;10218329;28;20071;-76
2023/03/08 20:41:21;;;;;;;12.70;9.68;;;;;;;0.36;100.00;99520.88;10230700;28;20050;-76
2023/03/08 20:46:19;;;;;;;13.02;9.60;;;;;;;0.41;100.00;99523.50;10222865;28;20056;-76
2023/03/08 20:51:18;;;;;;;9.98;8.85;;;;;;;0.37;100.00;99525.16;10218665;28;20099;-76
2023/03/08 20:56:16;;;;;;;12.40;10.25;;;;;;;0.33;100.00;99513.38;10227029;28;20242;-76
2023/03/08 21:01:16;;;;;;;13.15;9.65;;;;;;;0.29;100.00;99515.00;10223463;28;20136;-76
2023/03/08 21:06:18;;;;;;;12.13;9.38;;;;;;;0.26;100.00;99521.75;10226580;28;20054;-76
2023/03/08 21:11:15;;;;;;;9.93;8.18;;;;;;;0.30;100.00;99532.72;10232955;28;20579;-76
2023/03/08 21:16:14;;;;;;;10.13;8.27;;;;;;;0.29;100.00;99542.69;10229900;28;20522;-77
2023/03/08 21:21:22;;;;;;;10.63;9.05;;;;;;;0.22;100.00;99552.16;10235575;28;20045;-76
2023/03/08 21:26:20;;;;;;;11.18;8.60;;;;;;;0.13;100.00;99539.28;10228993;28;20111;-76
2023/03/08 21:31:18;;;;;;;10.52;8.52;;;;;;;0.05;100.00;99534.50;10235859;28;20103;-76
2023/03/08 21:36:15;;;;;;;12.23;8.20;;;;;;;0.04;100.00;99527.50;10232419;28;20140;-76
2023/03/08 21:41:23;;;;;;;9.02;8.02;;;;;;;0.07;100.00;99518.91;10226146;28;20042;-76
2023/03/08 21:46:20;;;;;;;10.20;8.18;;;;;;;-0.02;100.00;99504.44;10223916;28;20067;-78
2023/03/08 21:51:16;;;;;;;11.15;8.20;;;;;;;-0.18;100.00;99484.09;10229105;28;20049;-77
2023/03/08 21:56:15;;;;;;;10.85;8.40;;;;;;;-0.11;100.00;99489.97;10230251;28;20128;-77
2023/03/08 22:01:18;;;;;;;12.38;8.48;;;;;;;0.01;100.00;99487.75;10224055;28;20049;-76
2023/03/08 22:06:14;;;;;;;;;;;;;;;0.08;100.00;99493.63;10219038;28;20045;-76
2023/03/08 22:11:10;;;;;;;9.93;8.00;;;;;;;0.07;100.00;99483.97;10229447;28;19921;-76
2023/03/08 22:16:07;;;;;;;8.98;7.78;;;;;;;0.09;100.00;99484.47;10230508;28;20569;-76
2023/03/08 22:21:04;;;;;;;9.55;8.30;;;;;;;0.09;100.00;99480.97;10234171;28;20041;-77
2023/03/08 22:26:00;;;;;;;10.18;8.15;;;;;;;0.12;100.00;99483.91;10229889;28;20128;-77
2023/03/08 22:30:57;;;;;;;10.35;7.72;;;;;;;0.02;100.00;99489.34;10229556;28;20133;-77
2023/03/08 22:35:53;;;;;;;8.50;7.68;;;;;;;0.15;100.00;99490.63;10227166;28;20045;-77
2023/03/08 22:40:50;;;;;;;9.98;7.88;;;;;;;0.22;100.00;99479.56;10221028;28;20068;-77
2023/03/08 22:45:46;;;;;;;12.48;8.25;;;;;;;0.14;100.00;99476.38;10226887;28;20069;-77
2023/03/08 22:50:43;;;;;;;11.25;8.10;;;;;;;0.13;100.00;99477.44;10233339;28;20509;-77